Time;durP1;ratioP1;P1;durP2;ratioP2;P2;SDS_P1;SDS_P2;PMS_P1;PMS_P2;Temp;Humidity;BMP_temperature;BMP_pressure;BME280_temperature;BME280_humidity;BME280_pressure;Samples;Min_cycle;Max_cycle;Signal;HPM_P1;HPM_P2
2023/07/10 00:02:00;;;;;;;4.32;3.35;;;;;;;22.43;50.60;95742.19;5111421;28;20058;-78
2023/07/10 00:04:25;;;;;;;9.30;3.90;;;;;;;22.34;50.59;95736.88;5111902;28;20028;-78
2023/07/10 00:06:50;;;;;;;6.20;3.97;;;;;;;21.95;51.22;95706.56;5111165;28;20522;-78
2023/07/10 00:09:16;;;;;;;11.93;4.70;;;;;;;21.79;51.04;95680.53;5110397;28;20168;-78
2023/07/10 00:11:43;;;;;;;5.55;3.63;;;;;;;22.02;51.11;95724.16;5112044;28;20108;-78
2023/07/10 00:14:21;;;;;;;9.00;4.05;;;;;;;22.12;51.24;95727.25;5110685;28;20028;-78
2023/07/10 00:16:47;;;;;;;7.57;3.97;;;;;;;21.99;51.70;95716.72;5110875;28;20063;-78
2023/07/10 00:19:14;;;;;;;8.05;4.03;;;;;;;21.95;51.90;95716.56;5113589;27;20027;-78
2023/07/10 00:21:40;;;;;;;8.95;4.55;;;;;;;21.98;52.00;95718.63;5132801;27;20032;-78
2023/07/10 00:24:06;;;;;;;8.02;4.25;;;;;;;21.82;52.08;95696.03;5133086;27;20030;-78
2023/07/10 00:26:31;;;;;;;7.22;4.55;;;;;;;21.85;52.26;95701.56;5113877;28;20035;-78
2023/07/10 00:29:00;;;;;;;9.95;4.28;;;;;;;22.01;52.48;95734.19;5114270;28;20512;-78
2023/07/10 00:31:26;;;;;;;11.57;4.72;;;;;;;21.80;52.70;95719.91;5113618;28;20072;-78
2023/07/10 00:33:52;;;;;;;7.75;4.55;;;;;;;21.48;52.80;95678.25;5106568;28;20028;-78
2023/07/10 00:36:31;;;;;;;7.40;4.20;;;;;;;21.86;52.82;95740.97;5110142;28;20042;-78
2023/07/10 00:39:01;;;;;;;6.00;4.07;;;;;;;21.51;53.15;95691.84;5114169;28;20031;-78
2023/07/10 00:41:32;;;;;;;12.70;4.60;;;;;;;21.63;53.35;95714.63;5132491;28;20027;-78
2023/07/10 00:44:01;;;;;;;5.88;3.90;;;;;;;21.76;53.54;95740.56;5132231;28;20035;-78
2023/07/10 00:46:34;;;;;;;8.68;3.92;;;;;;;21.60;53.85;95736.88;5114068;28;20409;-78
2023/07/10 00:49:17;;;;;;;7.18;4.47;;;;;;;21.46;53.93;95719.06;5135719;27;20031;-78
2023/07/10 00:51:54;;;;;;;9.48;4.78;;;;;;;21.48;54.21;95726.81;5117876;27;20039;-78
2023/07/10 00:54:28;;;;;;;7.40;4.18;;;;;;;21.24;54.47;95702.41;5118095;27;20038;-78
2023/07/10 00:56:55;;;;;;;9.20;4.40;;;;;;;21.29;55.03;95719.16;5136886;27;20444;-78
2023/07/10 00:59:25;;;;;;;9.82;4.35;;;;;;;21.37;55.02;95728.31;5118374;27;20394;-78
2023/07/10 01:02:16;;;;;;;8.52;4.78;;;;;;;21.29;55.39;95732.66;5117968;27;20049;-78
2023/07/10 01:04:44;;;;;;;10.13;4.27;;;;;;;21.27;55.63;95737.63;5136504;27;20035;-78
2023/07/10 01:07:15;;;;;;;16.83;5.35;;;;;;;20.98;55.77;95702.56;5136883;27;20043;-77
2023/07/10 01:09:54;;;;;;;8.80;4.88;;;;;;;21.14;56.03;95738.59;5137067;27;20084;-78
2023/07/10 01:12:20;;;;;;;9.82;4.88;;;;;;;21.02;56.34;95744.72;5136371;27;20138;-78
2023/07/10 01:14:45;;;;;;;6.30;4.30;;;;;;;20.80;56.39;95697.25;5136191;27;20023;-78
2023/07/10 01:17:11;;;;;;;9.27;4.72;;;;;;;21.00;56.69;95741.53;5117571;27;20114;-78
2023/07/10 01:19:38;;;;;;;6.40;4.57;;;;;;;20.91;56.39;95726.50;5114005;28;20047;-77
2023/07/10 01:22:09;;;;;;;8.98;4.82;;;;;;;20.93;56.64;95735.06;5114164;28;20024;-78
2023/07/10 01:24:36;;;;;;;10.60;4.63;;;;;;;20.86;56.49;95700.53;5113506;28;20470;-78
2023/07/10 01:27:03;;;;;;;12.93;5.13;;;;;;;20.93;56.44;95708.91;5114291;28;20103;-78
2023/07/10 01:29:35;;;;;;;7.45;4.78;;;;;;;21.03;56.58;95750.91;5113887;28;20050;-78
2023/07/10 01:32:02;;;;;;;5.43;4.60;;;;;;;21.04;56.44;95747.09;5114325;28;20058;-78
2023/07/10 01:34:38;;;;;;;9.15;5.25;;;;;;;20.74;56.36;95717.44;5115795;28;20490;-78
2023/07/10 01:37:05;;;;;;;9.30;4.40;;;;;;;20.68;56.85;95696.34;5113931;28;20072;-79
2023/07/10 01:40:00;;;;;;;10.73;5.07;;;;;;;21.01;56.89;95737.72;5112262;28;20118;-80
2023/07/10 01:42:26;;;;;;;13.23;5.32;;;;;;;20.78;56.69;95698.69;5098914;28;20040;-80
2023/07/10 01:44:51;;;;;;;8.73;4.65;;;;;;;20.81;57.05;95703.44;5112295;28;20034;-80
2023/07/10 01:47:17;;;;;;;8.20;5.18;;;;;;;20.96;56.97;95737.94;5114230;28;20098;-80
2023/07/10 01:49:47;;;;;;;19.40;5.03;;;;;;;20.95;56.89;95738.25;5113905;28;20031;-81
2023/07/10 01:52:16;;;;;;;8.15;4.57;;;;;;;20.94;56.95;95736.66;5112069;28;20336;-80
2023/07/10 01:54:42;;;;;;;9.13;4.97;;;;;;;20.74;57.08;95722.81;5112022;28;20034;-80
2023/07/10 01:57:09;;;;;;;8.02;4.75;;;;;;;20.78;57.09;95720.25;5113280;28;20061;-80
2023/07/10 01:59:35;;;;;;;12.48;5.50;;;;;;;20.57;57.23;95698.63;5112509;28;20039;-80
2023/07/10 02:02:01;;;;;;;11.48;5.38;;;;;;;20.76;57.41;95725.16;5112122;28;20035;-79
2023/07/10 02:04:27;;;;;;;8.75;5.13;;;;;;;20.70;57.42;95718.38;5111874;28;20132;-79
2023/07/10 02:06:55;;;;;;;8.73;5.35;;;;;;;20.61;57.46;95717.63;5112971;28;20151;-79
2023/07/10 02:09:26;;;;;;;9.13;4.63;;;;;;;20.77;57.89;95749.09;5113195;28;20068;-79
2023/07/10 02:11:53;;;;;;;9.02;5.45;;;;;;;20.21;57.82;95661.34;5111557;28;20135;-79
2023/07/10 02:14:19;;;;;;;10.02;4.63;;;;;;;20.65;57.94;95737.44;5111357;28;20058;-79
2023/07/10 02:16:45;;;;;;;9.05;5.35;;;;;;;20.58;57.85;95732.56;5112993;28;20053;-79
2023/07/10 02:19:11;;;;;;;14.02;5.03;;;;;;;20.54;57.97;95730.81;5112783;28;20044;-79
2023/07/10 02:21:36;;;;;;;11.90;5.18;;;;;;;20.60;58.35;95749.16;5094443;28;20034;-79
2023/07/10 02:24:02;;;;;;;9.88;5.25;;;;;;;20.32;58.50;95707.56;5094437;28;20039;-79
2023/07/10 02:26:29;;;;;;;7.97;4.80;;;;;;;20.31;58.39;95712.16;5094253;28;20528;-79
2023/07/10 02:28:55;;;;;;;14.85;5.90;;;;;;;20.54;58.66;95757.75;5112736;28;20115;-79
2023/07/10 02:31:20;;;;;;;20.38;5.55;;;;;;;20.55;58.26;95757.44;5112312;28;20032;-79
2023/07/10 02:33:47;;;;;;;14.73;5.38;;;;;;;19.70;58.25;95631.88;5094651;28;20489;-79
2023/07/10 02:36:13;;;;;;;12.20;5.28;;;;;;;20.53;57.23;95758.88;5112485;28;20028;-79
2023/07/10 02:38:39;;;;;;;11.32;5.20;;;;;;;20.20;56.87;95723.63;5094362;28;20050;-79
2023/07/10 02:41:04;;;;;;;8.55;4.50;;;;;;;20.10;57.19;95745.50;5112591;28;20032;-79
2023/07/10 02:43:30;;;;;;;8.80;4.80;;;;;;;20.15;56.57;95739.91;5091846;28;20038;-79
2023/07/10 02:45:55;;;;;;;9.15;4.90;;;;;;;19.92;56.45;95732.03;5083474;28;20139;-79
2023/07/10 02:48:21;;;;;;;8.15;5.40;;;;;;;19.86;56.99;95732.53;5108572;28;20063;-79
2023/07/10 02:50:46;;;;;;;7.47;4.93;;;;;;;19.90;56.66;95728.13;5093621;28;20032;-79
2023/07/10 02:53:12;;;;;;;11.70;5.45;;;;;;;20.28;56.72;95764.00;5112682;28;20091;-79
2023/07/10 02:55:38;;;;;;;13.15;5.22;;;;;;;20.01;56.19;95721.28;5093984;28;20028;-79
2023/07/10 02:58:04;;;;;;;7.00;5.22;;;;;;;20.31;56.36;95776.81;5093693;28;20070;-79
2023/07/10 03:00:30;;;;;;;8.60;5.53;;;;;;;19.92;56.58;95745.50;5093913;28;20498;-79
2023/07/10 03:02:56;;;;;;;13.88;6.07;;;;;;;19.69;56.25;95711.00;5092011;27;20066;-79
2023/07/10 03:05:22;;;;;;;14.25;5.95;;;;;;;20.11;56.48;95788.25;5096564;27;20053;-79
2023/07/10 03:07:48;;;;;;;9.38;5.53;;;;;;;20.05;56.72;95778.78;5114152;27;20019;-79
2023/07/10 03:10:13;;;;;;;9.60;6.15;;;;;;;20.00;56.28;95758.16;5113953;27;20109;-79
2023/07/10 03:12:39;;;;;;;14.73;6.47;;;;;;;19.94;56.76;95764.84;5113652;27;20031;-79
2023/07/10 03:15:05;;;;;;;12.75;5.40;;;;;;;20.09;56.49;95760.84;5114012;27;20035;-79
2023/07/10 03:17:32;;;;;;;10.45;5.85;;;;;;;20.29;56.36;95783.66;5112988;27;20027;-79
2023/07/10 03:19:57;;;;;;;9.90;6.28;;;;;;;19.48;56.17;95662.44;5103169;28;20043;-79
2023/07/10 03:22:23;;;;;;;11.73;6.15;;;;;;;20.26;56.43;95787.75;5128868;27;20035;-79
2023/07/10 03:24:52;;;;;;;10.52;6.13;;;;;;;20.10;56.44;95756.25;5132387;27;20405;-79
2023/07/10 03:27:17;;;;;;;12.52;6.47;;;;;;;20.11;56.74;95757.84;5113448;27;20582;-79
2023/07/10 03:29:43;;;;;;;10.10;5.85;;;;;;;20.00;57.21;95752.78;5113322;27;20125;-79
2023/07/10 03:32:08;;;;;;;15.00;6.28;;;;;;;20.19;57.48;95782.06;5113684;27;20089;-79
2023/07/10 03:34:34;;;;;;;9.50;6.00;;;;;;;19.73;57.66;95701.22;5132277;27;20034;-79
2023/07/10 03:36:59;;;;;;;16.92;6.40;;;;;;;20.16;57.18;95780.00;5131908;27;20042;-79
2023/07/10 03:39:25;;;;;;;16.05;6.03;;;;;;;20.11;56.54;95790.94;5113155;27;20035;-79
2023/07/10 03:41:50;;;;;;;7.32;5.07;;;;;;;19.76;56.87;95732.88;5131986;27;20027;-79
2023/07/10 03:44:16;;;;;;;13.40;5.57;;;;;;;20.23;55.99;95796.47;5132119;27;20027;-79
2023/07/10 03:46:42;;;;;;;12.43;5.32;;;;;;;20.12;56.26;95776.38;5096579;27;20046;-79
2023/07/10 03:49:07;;;;;;;12.98;4.70;;;;;;;20.04;56.49;95794.13;5113115;27;20029;-79
2023/07/10 03:51:33;;;;;;;10.98;5.63;;;;;;;19.78;56.01;95747.59;5112846;27;20490;-79
2023/07/10 03:53:58;;;;;;;10.98;5.15;;;;;;;19.62;56.13;95730.34;5113469;27;20027;-79
2023/07/10 03:56:23;;;;;;;10.48;4.63;;;;;;;20.13;56.06;95806.78;5132123;27;20087;-79
2023/07/10 03:58:49;;;;;;;15.93;5.20;;;;;;;20.12;55.99;95806.00;5113179;27;20060;-79
2023/07/10 04:01:16;;;;;;;18.55;5.30;;;;;;;20.01;56.22;95812.81;5113001;27;20031;-79
2023/07/10 04:03:41;;;;;;;9.25;4.80;;;;;;;19.77;56.09;95805.19;5131756;27;20099;-79
2023/07/10 04:06:11;;;;;;;8.45;4.05;;;;;;;19.58;56.87;95815.50;5131840;27;20477;-78
2023/07/10 04:08:39;;;;;;;8.18;4.40;;;;;;;19.37;56.52;95772.25;5131622;27;20084;-79
2023/07/10 04:11:07;;;;;;;18.88;5.78;;;;;;;19.28;57.14;95785.66;5131494;27;20062;-79
2023/07/10 04:13:33;;;;;;;8.10;4.40;;;;;;;19.34;56.80;95782.81;5130973;27;20019;-79
2023/07/10 04:15:58;;;;;;;9.95;5.43;;;;;;;19.42;57.48;95825.88;5113112;27;20110;-79
2023/07/10 04:18:26;;;;;;;10.18;5.20;;;;;;;19.15;58.13;95818.03;5131609;27;20031;-78
2023/07/10 04:20:51;;;;;;;11.82;4.78;;;;;;;19.13;57.59;95796.88;5145837;27;20062;-79
2023/07/10 04:23:18;;;;;;;11.68;5.07;;;;;;;19.43;57.67;95822.09;5132450;27;20027;-79
2023/07/10 04:25:45;;;;;;;10.38;4.68;;;;;;;19.40;57.00;95805.75;5151428;27;20066;-79
2023/07/10 04:28:10;;;;;;;14.63;5.50;;;;;;;19.13;56.78;95751.16;5151528;27;20030;-79
2023/07/10 04:30:35;;;;;;;9.18;5.13;;;;;;;19.81;56.13;95818.84;5151571;27;20027;-79
2023/07/10 04:33:01;;;;;;;15.60;5.55;;;;;;;19.71;56.45;95822.63;5133066;27;20035;-79
2023/07/10 04:35:26;;;;;;;16.48;6.22;;;;;;;19.82;55.90;95820.41;5132633;27;20053;-79
2023/07/10 04:37:51;;;;;;;13.52;5.90;;;;;;;19.52;55.88;95771.03;5132515;27;20541;-79
2023/07/10 04:40:17;;;;;;;14.13;5.95;;;;;;;19.39;56.51;95774.59;5132313;27;20078;-79
2023/07/10 04:42:42;;;;;;;9.05;5.65;;;;;;;19.60;56.49;95806.00;5132789;27;20022;-79
2023/07/10 04:45:08;;;;;;;10.18;5.55;;;;;;;19.89;55.89;95826.91;5151205;27;20476;-79
2023/07/10 04:47:33;;;;;;;12.40;5.50;;;;;;;19.80;56.10;95825.31;5132511;27;20040;-79
2023/07/10 04:49:59;;;;;;;10.10;5.28;;;;;;;19.61;55.72;95771.78;5132869;27;20512;-79
2023/07/10 04:52:24;;;;;;;18.10;6.75;;;;;;;19.96;55.60;95808.38;5150823;27;20121;-79
2023/07/10 04:54:50;;;;;;;9.85;5.28;;;;;;;19.91;55.32;95776.22;5132389;27;20106;-79
2023/07/10 04:57:17;;;;;;;7.80;5.72;;;;;;;20.04;55.21;95787.94;5131956;27;20053;-79
2023/07/10 04:59:43;;;;;;;15.15;5.97;;;;;;;20.34;54.78;95818.50;5132191;27;20041;-80
2023/07/10 05:02:10;;;;;;;11.70;5.55;;;;;;;20.38;54.90;95817.53;5150885;27;20105;-80
2023/07/10 05:04:35;;;;;;;13.13;5.65;;;;;;;20.38;54.77;95803.28;5122206;28;20088;-80
2023/07/10 05:07:03;;;;;;;9.68;6.10;;;;;;;20.50;54.74;95808.03;5129104;28;20035;-81
2023/07/10 05:09:31;;;;;;;12.90;5.53;;;;;;;20.33;54.96;95781.88;5129218;28;20023;-81
2023/07/10 05:11:57;;;;;;;8.00;5.38;;;;;;;20.56;55.14;95812.91;5129597;27;20076;-81
2023/07/10 05:14:24;;;;;;;10.45;5.30;;;;;;;20.54;54.93;95803.56;5127875;28;20027;-81
2023/07/10 05:16:49;;;;;;;11.98;5.05;;;;;;;20.71;55.10;95814.28;5130262;28;20051;-81
2023/07/10 05:19:15;;;;;;;8.60;5.43;;;;;;;20.53;55.08;95783.13;5123853;27;20104;-81
2023/07/10 05:21:40;;;;;;;15.18;5.82;;;;;;;20.71;54.83;95803.50;5127131;27;20031;-81
2023/07/10 05:24:07;;;;;;;13.48;5.65;;;;;;;20.78;54.94;95818.06;5130030;28;20052;-81
2023/07/10 05:26:32;;;;;;;25.10;6.72;;;;;;;20.87;54.69;95814.56;5118522;27;20031;-81
2023/07/10 05:28:58;;;;;;;14.02;6.07;;;;;;;20.63;54.87;95785.47;5132199;27;20105;-80
2023/07/10 05:31:23;;;;;;;15.93;6.75;;;;;;;20.83;54.97;95810.94;5122519;28;20118;-81
2023/07/10 05:33:50;;;;;;;12.43;6.65;;;;;;;20.92;54.80;95804.38;5094804;27;20103;-81
2023/07/10 05:36:17;;;;;;;19.63;5.95;;;;;;;21.10;54.70;95811.28;5132290;27;20034;-82
2023/07/10 05:38:48;;;;;;;13.70;6.30;;;;;;;21.10;54.66;95816.69;5097604;27;20522;-81
2023/07/10 05:41:16;;;;;;;18.65;6.32;;;;;;;20.93;54.41;95795.19;5114155;27;20031;-80
2023/07/10 05:43:42;;;;;;;12.98;6.38;;;;;;;21.15;54.39;95802.22;5111920;27;20588;-79
2023/07/10 05:46:07;;;;;;;12.73;6.20;;;;;;;21.28;54.36;95819.34;5127424;27;20023;-79
2023/07/10 05:48:33;;;;;;;15.90;6.53;;;;;;;21.33;54.30;95819.94;5113407;27;20031;-80
2023/07/10 05:50:59;;;;;;;19.40;7.35;;;;;;;21.40;54.17;95814.00;5126396;27;20492;-79
2023/07/10 05:53:25;;;;;;;16.52;5.90;;;;;;;21.45;54.25;95813.81;5130118;27;20030;-80
2023/07/10 05:55:53;;;;;;;26.45;6.90;;;;;;;21.21;54.22;95782.06;5114829;27;20035;-80
2023/07/10 05:58:20;;;;;;;14.43;6.70;;;;;;;21.35;54.10;95789.94;5108463;27;20035;-80
2023/07/10 06:00:49;;;;;;;11.88;7.20;;;;;;;21.32;54.33;95806.75;5115443;27;20490;-80
2023/07/10 06:03:15;;;;;;;18.05;6.75;;;;;;;21.44;54.15;95796.84;5116408;27;20052;-80
2023/07/10 06:05:41;;;;;;;16.58;8.23;;;;;;;21.35;54.93;95804.22;5110721;27;20103;-80
2023/07/10 06:08:08;;;;;;;15.95;7.35;;;;;;;20.99;54.69;95744.56;5124830;27;20027;-80
2023/07/10 06:10:34;;;;;;;21.20;8.32;;;;;;;21.36;54.67;95802.31;5125627;27;20031;-80
2023/07/10 06:12:59;;;;;;;20.05;6.45;;;;;;;21.57;54.52;95808.53;5121907;27;20419;-81
2023/07/10 06:15:26;;;;;;;17.35;7.00;;;;;;;21.45;54.60;95798.41;5101403;27;20059;-80
2023/07/10 06:17:52;;;;;;;11.07;6.28;;;;;;;21.68;53.89;95814.31;5125373;27;20032;-80
2023/07/10 06:20:17;;;;;;;18.00;7.03;;;;;;;21.46;54.29;95786.50;5126103;27;20552;-80
2023/07/10 06:22:43;;;;;;;19.55;6.88;;;;;;;21.53;54.66;95797.56;5130158;27;20035;-80
2023/07/10 06:25:09;;;;;;;21.15;7.30;;;;;;;21.45;54.83;95786.84;5112006;27;20023;-80
2023/07/10 06:27:35;;;;;;;23.48;7.97;;;;;;;21.62;55.27;95812.91;5125767;27;20023;-80
2023/07/10 06:30:01;;;;;;;13.77;7.30;;;;;;;21.46;54.99;95797.31;5127402;27;20119;-80
2023/07/10 06:32:27;;;;;;;25.85;6.97;;;;;;;20.54;55.98;95669.63;5113950;27;20023;-80
2023/07/10 06:34:52;;;;;;;15.50;7.18;;;;;;;21.36;55.37;95778.03;5132950;27;20038;-81
2023/07/10 06:37:17;;;;;;;21.60;7.30;;;;;;;21.51;55.30;95788.25;5132358;27;20524;-80
2023/07/10 06:39:43;;;;;;;18.52;6.68;;;;;;;21.37;55.48;95753.41;5132199;27;20516;-80
2023/07/10 06:42:08;;;;;;;17.75;6.55;;;;;;;21.61;55.06;95820.22;5115394;27;20022;-81
2023/07/10 06:44:34;;;;;;;10.68;6.10;;;;;;;21.51;55.41;95809.84;5128328;27;20023;-80
2023/07/10 06:46:59;;;;;;;14.05;5.15;;;;;;;21.55;54.74;95819.63;5131993;27;20045;-80
2023/07/10 06:49:26;;;;;;;17.75;5.85;;;;;;;21.64;54.77;95827.69;5123929;27;20470;-80
2023/07/10 06:51:51;;;;;;;17.38;7.10;;;;;;;21.73;54.99;95811.44;5129025;27;20516;-80
2023/07/10 06:54:16;;;;;;;15.75;5.03;;;;;;;21.49;54.16;95772.38;5130217;27;20030;-80
2023/07/10 06:56:42;;;;;;;10.50;5.28;;;;;;;21.85;54.22;95819.59;5112410;27;20580;-80
2023/07/10 06:59:08;;;;;;;13.85;5.13;;;;;;;21.50;53.95;95755.06;5111344;27;20118;-80
2023/07/10 07:01:33;;;;;;;11.55;6.13;;;;;;;21.87;54.19;95784.94;5122795;27;20478;-80
2023/07/10 07:03:59;;;;;;;11.75;4.80;;;;;;;21.99;53.23;95808.53;5130266;27;20043;-79
2023/07/10 07:06:24;;;;;;;12.80;5.03;;;;;;;21.97;53.13;95811.56;5131500;27;20151;-80
2023/07/10 07:08:51;;;;;;;17.88;5.22;;;;;;;22.06;53.05;95811.50;5111666;27;20094;-80
2023/07/10 07:11:17;;;;;;;15.68;4.85;;;;;;;22.11;53.19;95805.91;5129765;27;20027;-80
2023/07/10 07:13:43;;;;;;;15.63;4.68;;;;;;;22.10;52.69;95786.22;5130522;27;20056;-81
2023/07/10 07:16:09;;;;;;;12.50;4.72;;;;;;;22.15;52.49;95798.72;5128142;27;20035;-80
2023/07/10 07:18:34;;;;;;;10.80;5.07;;;;;;;22.04;52.34;95762.44;5117052;27;20039;-80
2023/07/10 07:21:00;;;;;;;15.88;5.55;;;;;;;22.13;52.27;95777.44;5147195;27;20081;-80
2023/07/10 07:23:27;;;;;;;13.50;5.70;;;;;;;22.39;52.41;95809.59;5123085;27;20035;-80
2023/07/10 07:25:54;;;;;;;6.72;4.88;;;;;;;22.24;51.87;95767.00;5134137;27;20408;-80
2023/07/10 07:28:20;;;;;;;9.25;4.70;;;;;;;22.39;50.94;95784.50;5149712;27;20187;-80
2023/07/10 07:30:48;;;;;;;10.90;4.80;;;;;;;22.50;51.03;95788.38;5131620;27;20109;-80
2023/07/10 07:33:14;;;;;;;10.55;4.40;;;;;;;22.51;50.72;95776.41;5146792;27;20030;-80
2023/07/10 07:35:40;;;;;;;11.23;5.15;;;;;;;22.60;50.80;95790.63;5136580;27;20041;-81
2023/07/10 07:38:05;;;;;;;8.25;4.63;;;;;;;22.65;50.40;95795.84;5122596;27;20473;-80
2023/07/10 07:40:31;;;;;;;16.05;5.03;;;;;;;22.65;51.12;95777.69;5117723;27;20027;-80
2023/07/10 07:42:57;;;;;;;11.63;4.75;;;;;;;22.61;49.75;95749.75;5110973;27;20032;-80
2023/07/10 07:45:23;;;;;;;9.25;4.70;;;;;;;22.89;49.64;95786.97;5148844;27;20035;-80
2023/07/10 07:47:48;;;;;;;14.50;4.85;;;;;;;22.88;49.90;95756.47;5133868;27;20126;-80
2023/07/10 07:50:14;;;;;;;5.47;4.05;;;;;;;22.94;49.11;95759.72;5133403;27;20175;-80
2023/07/10 07:52:39;;;;;;;9.93;4.28;;;;;;;23.02;48.84;95753.41;5133279;27;20023;-80
2023/07/10 07:55:06;;;;;;;7.22;4.47;;;;;;;23.22;49.25;95768.72;5151856;27;20018;-81
2023/07/10 07:57:32;;;;;;;10.00;4.82;;;;;;;23.32;48.89;95770.19;5125934;27;20031;-80
2023/07/10 07:59:58;;;;;;;8.77;4.72;;;;;;;23.07;48.59;95764.78;5136946;27;20038;-80
2023/07/10 08:02:24;;;;;;;7.70;4.53;;;;;;;23.08;49.25;95766.38;5151256;27;20019;-80
2023/07/10 08:04:49;;;;;;;11.18;5.32;;;;;;;23.12;49.03;95749.44;5122969;27;20042;-80
2023/07/10 08:07:15;;;;;;;10.13;4.72;;;;;;;23.32;48.49;95757.44;5123900;27;20091;-80
2023/07/10 08:09:40;;;;;;;9.02;4.15;;;;;;;23.43;47.98;95747.72;5121786;27;20039;-80
2023/07/10 08:12:06;;;;;;;7.80;4.18;;;;;;;23.55;47.44;95752.38;5129533;27;20027;-80
2023/07/10 08:14:32;;;;;;;11.20;4.75;;;;;;;23.49;47.98;95732.09;5130107;27;20031;-80
2023/07/10 08:16:57;;;;;;;8.30;4.13;;;;;;;23.61;46.89;95763.75;5129969;27;20037;-80
2023/07/10 08:19:22;;;;;;;10.43;4.63;;;;;;;23.66;46.89;95744.53;5126565;27;20037;-81
2023/07/10 08:21:48;;;;;;;8.25;4.10;;;;;;;24.02;46.63;95771.53;5121677;27;20404;-80
2023/07/10 08:24:14;;;;;;;8.63;3.80;;;;;;;24.02;47.14;95766.09;5125408;27;20477;-81
2023/07/10 08:26:39;;;;;;;10.60;4.30;;;;;;;23.51;47.37;95691.91;5131774;27;20022;-81
2023/07/10 08:29:26;;;;;;;6.53;4.35;;;;;;;24.04;46.73;95754.91;5152939;27;20042;-81
2023/07/10 08:31:55;;;;;;;6.45;4.05;;;;;;;23.95;45.99;95725.28;5128660;27;20075;-80
2023/07/10 08:34:22;;;;;;;6.00;4.10;;;;;;;24.18;46.49;95768.88;5138961;27;20059;-81
2023/07/10 08:36:48;;;;;;;9.05;4.10;;;;;;;24.17;46.50;95746.41;5151042;27;20458;-81
2023/07/10 08:39:14;;;;;;;13.38;4.13;;;;;;;24.25;46.42;95758.25;5121178;28;20096;-81
2023/07/10 08:41:40;;;;;;;9.85;3.97;;;;;;;24.01;47.07;95715.75;5140576;27;20065;-80
2023/07/10 08:44:09;;;;;;;8.90;4.32;;;;;;;24.16;46.76;95733.97;5151626;27;20058;-81
2023/07/10 08:46:35;;;;;;;6.88;4.03;;;;;;;24.11;45.97;95734.22;5151942;27;20109;-81
2023/07/10 08:49:25;;;;;;;9.13;4.30;;;;;;;24.56;45.07;95754.81;5135071;27;20057;-81
2023/07/10 08:52:15;;;;;;;7.88;4.30;;;;;;;24.36;45.77;95769.34;5120994;28;20137;-80
2023/07/10 08:54:45;;;;;;;11.05;4.47;;;;;;;24.41;46.09;95766.41;5150802;27;20420;-81
2023/07/10 08:57:13;;;;;;;10.98;4.75;;;;;;;24.44;45.86;95760.28;5133105;27;20034;-81
2023/07/10 08:59:59;;;;;;;10.15;4.53;;;;;;;24.32;45.93;95727.81;5132973;27;20511;-81
2023/07/10 09:02:48;;;;;;;9.65;4.63;;;;;;;24.59;46.82;95757.59;5138989;27;20058;-81
2023/07/10 09:05:21;;;;;;;6.07;4.18;;;;;;;24.33;45.36;95688.75;5147062;27;20039;-81
2023/07/10 09:07:48;;;;;;;8.55;4.10;;;;;;;24.81;45.12;95753.47;5121203;28;20045;-81
2023/07/10 09:10:30;;;;;;;8.07;4.65;;;;;;;24.71;44.76;95734.25;5132812;27;20070;-81
2023/07/10 09:12:59;;;;;;;10.27;4.18;;;;;;;24.73;44.99;95727.31;5132503;27;20034;-81
2023/07/10 09:15:32;;;;;;;12.57;4.68;;;;;;;24.80;45.05;95732.91;5133366;27;20258;-81
2023/07/10 09:18:09;;;;;;;10.35;4.03;;;;;;;24.96;43.42;95746.50;5125754;27;20097;-81
2023/07/10 09:20:36;;;;;;;8.85;4.05;;;;;;;25.06;43.49;95751.41;5134738;27;20142;-81
2023/07/10 09:23:24;;;;;;;5.13;4.10;;;;;;;24.99;43.00;95724.88;5136273;27;20090;-81
2023/07/10 09:25:55;;;;;;;12.85;4.15;;;;;;;25.21;40.92;95737.03;5111037;27;20103;-81
2023/07/10 09:28:23;;;;;;;7.25;4.13;;;;;;;25.35;40.82;95714.81;5132662;27;20471;-81
2023/07/10 09:31:00;;;;;;;10.50;4.35;;;;;;;25.49;41.17;95717.06;5132332;27;20039;-81
2023/07/10 09:33:56;;;;;;;5.18;3.88;;;;;;;25.42;39.67;95731.28;5132684;27;20489;-81
2023/07/10 09:36:22;;;;;;;9.40;3.45;;;;;;;25.43;39.80;95704.91;5114655;27;20464;-81
2023/07/10 09:38:49;;;;;;;7.00;3.80;;;;;;;25.55;40.30;95740.09;5132764;27;20034;-81
2023/07/10 09:41:19;;;;;;;7.72;4.13;;;;;;;25.43;39.66;95686.69;5115276;27;20035;-81
2023/07/10 09:43:55;;;;;;;8.52;4.20;;;;;;;25.66;38.98;95700.38;5131771;27;20096;-81
2023/07/10 09:46:30;;;;;;;5.82;3.50;;;;;;;25.77;37.87;95739.44;5128682;27;20031;-81
2023/07/10 09:48:59;;;;;;;7.07;4.00;;;;;;;25.71;39.40;95709.03;5132120;27;20046;-81
2023/07/10 09:51:25;;;;;;;7.18;3.38;;;;;;;26.30;38.91;95723.41;5150657;27;20079;-81
2023/07/10 09:53:59;;;;;;;6.68;3.67;;;;;;;26.79;37.18;95709.88;5130247;27;20130;-81
2023/07/10 09:56:54;;;;;;;5.63;4.00;;;;;;;26.79;37.18;95709.88;5125397;27;20055;-81
2023/07/10 09:59:30;;;;;;;6.28;4.00;;;;;;;28.09;34.44;95707.41;5125740;27;20173;-81
2023/07/10 10:01:55;;;;;;;4.97;3.38;;;;;;;28.59;33.89;95697.06;5136517;27;20517;-81
2023/07/10 10:04:31;;;;;;;6.07;3.63;;;;;;;29.88;32.79;95719.41;5117484;27;20031;-81
2023/07/10 10:07:05;;;;;;;11.73;3.58;;;;;;;29.37;32.63;95686.78;5125508;27;20031;-81
2023/07/10 10:09:32;;;;;;;5.75;3.33;;;;;;;29.87;30.09;95668.63;5133733;27;20038;-81
2023/07/10 10:12:03;;;;;;;11.15;3.70;;;;;;;30.78;30.26;95677.44;5153304;27;20030;-81
2023/07/10 10:14:49;;;;;;;9.40;3.60;;;;;;;31.21;29.48;95684.47;5153268;27;20062;-81
2023/07/10 10:17:17;;;;;;;13.07;3.45;;;;;;;30.41;29.94;95686.00;5152944;27;20106;-83
2023/07/10 10:19:49;;;;;;;6.00;3.17;;;;;;;30.08;29.46;95681.63;5134424;27;20122;-81
2023/07/10 10:22:15;;;;;;;6.10;3.15;;;;;;;30.58;27.73;95696.22;5152200;27;20031;-81
2023/07/10 10:24:41;;;;;;;4.25;3.17;;;;;;;31.23;27.42;95648.47;5117712;27;20099;-81
2023/07/10 10:27:22;;;;;;;4.00;2.97;;;;;;;32.23;27.42;95682.59;5133922;27;20042;-81
2023/07/10 10:30:15;;;;;;;7.00;2.97;;;;;;;32.82;26.12;95690.84;5133835;27;20544;-81
2023/07/10 10:32:53;;;;;;;4.75;2.97;;;;;;;31.70;26.46;95660.88;5153149;27;20050;-81
2023/07/10 10:35:43;;;;;;;6.38;3.17;;;;;;;31.15;26.57;95638.69;5153265;27;20031;-81
2023/07/10 10:38:35;;;;;;;8.25;3.78;;;;;;;30.90;27.98;95679.78;5134357;27;20068;-81
2023/07/10 10:41:06;;;;;;;5.05;3.28;;;;;;;30.50;28.10;95698.16;5153097;27;20083;-81
2023/07/10 10:43:32;;;;;;;4.47;3.08;;;;;;;31.12;27.89;95692.34;5133742;27;20042;-81
2023/07/10 10:46:16;;;;;;;4.53;2.85;;;;;;;31.46;27.34;95689.91;5133368;27;20034;-81
2023/07/10 10:48:51;;;;;;;5.80;3.20;;;;;;;31.91;25.30;95685.47;5133951;27;20037;-81
2023/07/10 10:51:28;;;;;;;5.50;2.63;;;;;;;32.02;26.49;95642.31;5115875;27;20037;-82
2023/07/10 10:54:23;;;;;;;6.68;3.08;;;;;;;31.79;26.48;95680.44;5152285;27;20108;-81
2023/07/10 10:57:12;;;;;;;4.00;3.33;;;;;;;31.03;28.06;95662.56;5152051;27;20409;-81
2023/07/10 11:00:05;;;;;;;10.00;3.83;;;;;;;31.05;28.33;95684.84;5129571;27;20117;-81
2023/07/10 11:02:52;;;;;;;5.53;3.53;;;;;;;31.27;26.75;95669.22;5145092;27;20031;-81
2023/07/10 11:05:39;;;;;;;9.50;3.72;;;;;;;31.73;26.79;95668.31;5124242;27;20043;-81
2023/07/10 11:08:18;;;;;;;4.60;3.50;;;;;;;31.88;26.74;95622.41;5133599;27;20031;-82
2023/07/10 11:10:46;;;;;;;8.07;3.92;;;;;;;31.65;27.66;95661.31;5131809;27;20031;-81
2023/07/10 11:13:20;;;;;;;10.35;4.00;;;;;;;32.16;27.50;95661.47;5124316;27;20536;-81
2023/07/10 11:15:46;;;;;;;5.43;3.75;;;;;;;31.97;27.23;95598.81;5129137;27;20365;-81
2023/07/10 11:18:15;;;;;;;5.93;3.60;;;;;;;32.46;26.76;95658.13;5152277;27;20580;-81
2023/07/10 11:20:41;;;;;;;6.32;3.45;;;;;;;31.99;27.32;95628.59;5122846;27;20071;-81
2023/07/10 11:23:35;;;;;;;5.05;3.30;;;;;;;31.60;27.71;95661.66;5131580;27;20208;-81
2023/07/10 11:26:07;;;;;;;11.93;3.92;;;;;;;31.49;28.16;95658.19;5112935;27;20117;-82
2023/07/10 11:28:32;;;;;;;6.65;3.47;;;;;;;30.91;28.11;95656.69;5113487;27;20027;-82
2023/07/10 11:31:22;;;;;;;8.90;3.80;;;;;;;31.03;27.80;95656.31;5113689;27;20034;-79
2023/07/10 11:34:05;;;;;;;9.10;3.47;;;;;;;31.04;27.78;95612.09;5133151;27;20034;-79
2023/07/10 11:36:33;;;;;;;3.97;2.97;;;;;;;31.45;28.30;95661.72;5132926;27;20039;-79
2023/07/10 11:39:05;;;;;;;6.18;3.28;;;;;;;31.09;27.16;95649.28;5120640;27;20091;-79